sensor_id;sensor_type;location;lat;lon;timestamp;P1;durP1;ratioP1;P2;durP2;ratioP2
84163;SDS011;74288;46.872;7.802;2024-03-23T00:55:55;6.82;;;1.65;;
84163;SDS011;74288;46.872;7.802;2024-03-23T00:58:21;4.88;;;1.60;;
84163;SDS011;74288;46.872;7.802;2024-03-23T01:00:47;4.40;;;1.63;;
84163;SDS011;74288;46.872;7.802;2024-03-23T01:03:13;4.88;;;1.75;;
84163;SDS011;74288;46.872;7.802;2024-03-23T01:05:39;4.63;;;1.80;;
84163;SDS011;74288;46.872;7.802;2024-03-23T01:08:05;3.92;;;1.63;;
84163;SDS011;74288;46.872;7.802;2024-03-23T01:10:31;4.83;;;1.60;;
84163;SDS011;74288;46.872;7.802;2024-03-23T01:12:57;4.80;;;1.55;;
84163;SDS011;74288;46.872;7.802;2024-03-23T01:15:23;4.40;;;1.75;;
84163;SDS011;74288;46.872;7.802;2024-03-23T01:17:49;3.70;;;1.60;;
84163;SDS011;74288;46.872;7.802;2024-03-23T01:20:15;3.27;;;1.50;;
84163;SDS011;74288;46.872;7.802;2024-03-23T01:22:42;5.05;;;1.60;;
84163;SDS011;74288;46.872;7.802;2024-03-23T01:25:08;4.00;;;1.60;;
84163;SDS011;74288;46.872;7.802;2024-03-23T01:27:34;3.90;;;1.45;;
84163;SDS011;74288;46.872;7.802;2024-03-23T01:30:00;4.77;;;1.63;;
84163;SDS011;74288;46.872;7.802;2024-03-23T01:32:26;3.97;;;1.60;;
84163;SDS011;74288;46.872;7.802;2024-03-23T01:34:52;4.05;;;1.60;;
84163;SDS011;74288;46.872;7.802;2024-03-23T01:37:18;4.28;;;1.50;;
84163;SDS011;74288;46.872;7.802;2024-03-23T01:39:44;3.95;;;1.60;;
84163;SDS011;74288;46.872;7.802;2024-03-23T01:42:10;3.83;;;1.60;;
84163;SDS011;74288;46.872;7.802;2024-03-23T01:44:36;4.63;;;1.70;;
84163;SDS011;74288;46.872;7.802;2024-03-23T01:47:02;3.97;;;1.70;;
84163;SDS011;74288;46.872;7.802;2024-03-23T01:49:29;4.07;;;1.60;;
84163;SDS011;74288;46.872;7.802;2024-03-23T01:51:55;3.70;;;1.60;;
84163;SDS011;74288;46.872;7.802;2024-03-23T01:54:21;4.97;;;1.60;;
84163;SDS011;74288;46.872;7.802;2024-03-23T01:56:47;3.95;;;1.50;;
84163;SDS011;74288;46.872;7.802;2024-03-23T01:59:14;4.70;;;1.40;;
84163;SDS011;74288;46.872;7.802;2024-03-23T02:01:40;4.40;;;1.55;;
84163;SDS011;74288;46.872;7.802;2024-03-23T02:04:06;4.10;;;1.60;;
84163;SDS011;74288;46.872;7.802;2024-03-23T02:06:34;3.13;;;1.38;;
84163;SDS011;74288;46.872;7.802;2024-03-23T02:09:00;4.72;;;1.50;;
84163;SDS011;74288;46.872;7.802;2024-03-23T02:11:26;3.42;;;1.48;;
84163;SDS011;74288;46.872;7.802;2024-03-23T02:13:52;3.70;;;1.40;;
84163;SDS011;74288;46.872;7.802;2024-03-23T02:16:18;5.93;;;1.70;;
84163;SDS011;74288;46.872;7.802;2024-03-23T02:18:44;3.47;;;1.40;;
84163;SDS011;74288;46.872;7.802;2024-03-23T02:21:10;3.83;;;1.50;;
84163;SDS011;74288;46.872;7.802;2024-03-23T02:23:36;5.22;;;1.70;;
84163;SDS011;74288;46.872;7.802;2024-03-23T02:26:02;3.78;;;1.50;;
84163;SDS011;74288;46.872;7.802;2024-03-23T02:28:28;5.60;;;1.80;;
84163;SDS011;74288;46.872;7.802;2024-03-23T02:30:54;3.72;;;1.50;;
84163;SDS011;74288;46.872;7.802;2024-03-23T02:33:20;3.95;;;1.30;;
84163;SDS011;74288;46.872;7.802;2024-03-23T02:35:46;3.25;;;1.38;;
84163;SDS011;74288;46.872;7.802;2024-03-23T02:38:12;4.50;;;1.40;;
84163;SDS011;74288;46.872;7.802;2024-03-23T02:40:39;4.10;;;1.50;;
84163;SDS011;74288;46.872;7.802;2024-03-23T02:43:05;4.55;;;1.60;;
84163;SDS011;74288;46.872;7.802;2024-03-23T02:45:31;3.75;;;1.40;;
84163;SDS011;74288;46.872;7.802;2024-03-23T02:47:57;4.63;;;1.30;;
84163;SDS011;74288;46.872;7.802;2024-03-23T02:50:23;3.33;;;1.40;;
84163;SDS011;74288;46.872;7.802;2024-03-23T02:52:49;5.03;;;1.30;;
84163;SDS011;74288;46.872;7.802;2024-03-23T02:55:15;3.63;;;1.38;;
84163;SDS011;74288;46.872;7.802;2024-03-23T02:57:42;3.20;;;1.27;;
84163;SDS011;74288;46.872;7.802;2024-03-23T03:00:08;5.03;;;1.50;;
84163;SDS011;74288;46.872;7.802;2024-03-23T03:02:35;3.35;;;1.30;;
84163;SDS011;74288;46.872;7.802;2024-03-23T03:05:02;3.83;;;1.40;;
84163;SDS011;74288;46.872;7.802;2024-03-23T03:07:29;4.82;;;1.40;;
84163;SDS011;74288;46.872;7.802;2024-03-23T03:09:55;5.55;;;1.60;;
84163;SDS011;74288;46.872;7.802;2024-03-23T03:12:21;5.13;;;1.80;;
84163;SDS011;74288;46.872;7.802;2024-03-23T03:14:47;4.07;;;1.50;;
84163;SDS011;74288;46.872;7.802;2024-03-23T03:17:13;3.42;;;1.48;;
84163;SDS011;74288;46.872;7.802;2024-03-23T03:19:40;4.60;;;1.40;;
84163;SDS011;74288;46.872;7.802;2024-03-23T03:22:06;5.35;;;1.60;;
84163;SDS011;74288;46.872;7.802;2024-03-23T03:24:32;4.45;;;1.60;;
84163;SDS011;74288;46.872;7.802;2024-03-23T03:26:58;3.85;;;1.50;;
84163;SDS011;74288;46.872;7.802;2024-03-23T03:29:23;4.30;;;1.50;;
84163;SDS011;74288;46.872;7.802;2024-03-23T03:31:49;3.57;;;1.40;;
84163;SDS011;74288;46.872;7.802;2024-03-23T03:34:16;4.30;;;1.40;;
84163;SDS011;74288;46.872;7.802;2024-03-23T03:36:42;6.15;;;1.75;;
84163;SDS011;74288;46.872;7.802;2024-03-23T03:39:07;4.63;;;1.80;;
84163;SDS011;74288;46.872;7.802;2024-03-23T03:41:33;4.40;;;1.30;;
84163;SDS011;74288;46.872;7.802;2024-03-23T03:43:59;3.83;;;1.30;;
84163;SDS011;74288;46.872;7.802;2024-03-23T03:46:27;4.32;;;1.40;;
84163;SDS011;74288;46.872;7.802;2024-03-23T03:48:54;4.20;;;1.50;;
84163;SDS011;74288;46.872;7.802;2024-03-23T03:51:20;4.70;;;1.60;;
84163;SDS011;74288;46.872;7.802;2024-03-23T03:53:46;5.28;;;1.50;;
84163;SDS011;74288;46.872;7.802;2024-03-23T03:56:12;4.22;;;1.42;;
84163;SDS011;74288;46.872;7.802;2024-03-23T03:58:38;4.53;;;1.40;;
84163;SDS011;74288;46.872;7.802;2024-03-23T04:01:05;3.70;;;1.50;;
84163;SDS011;74288;46.872;7.802;2024-03-23T04:03:31;5.33;;;1.50;;
84163;SDS011;74288;46.872;7.802;2024-03-23T04:05:57;3.83;;;1.50;;
84163;SDS011;74288;46.872;7.802;2024-03-23T04:08:23;4.55;;;1.60;;
84163;SDS011;74288;46.872;7.802;2024-03-23T04:10:49;3.20;;;1.40;;
84163;SDS011;74288;46.872;7.802;2024-03-23T04:13:15;3.80;;;1.40;;
84163;SDS011;74288;46.872;7.802;2024-03-23T04:15:41;4.18;;;1.40;;
84163;SDS011;74288;46.872;7.802;2024-03-23T04:18:07;4.18;;;1.50;;
84163;SDS011;74288;46.872;7.802;2024-03-23T04:20:33;5.53;;;1.50;;
84163;SDS011;74288;46.872;7.802;2024-03-23T04:23:00;5.35;;;1.60;;
84163;SDS011;74288;46.872;7.802;2024-03-23T04:25:26;3.70;;;1.40;;
84163;SDS011;74288;46.872;7.802;2024-03-23T04:27:52;3.33;;;1.35;;
84163;SDS011;74288;46.872;7.802;2024-03-23T04:30:18;4.72;;;1.40;;
84163;SDS011;74288;46.872;7.802;2024-03-23T04:32:44;3.60;;;1.40;;
84163;SDS011;74288;46.872;7.802;2024-03-23T04:35:10;4.20;;;1.60;;
84163;SDS011;74288;46.872;7.802;2024-03-23T04:37:36;3.42;;;1.30;;
84163;SDS011;74288;46.872;7.802;2024-03-23T04:40:05;4.10;;;1.60;;
84163;SDS011;74288;46.872;7.802;2024-03-23T04:42:32;4.53;;;1.50;;
84163;SDS011;74288;46.872;7.802;2024-03-23T04:44:58;4.15;;;1.60;;
84163;SDS011;74288;46.872;7.802;2024-03-23T04:47:24;4.80;;;1.70;;
84163;SDS011;74288;46.872;7.802;2024-03-23T04:49:50;3.70;;;1.60;;
84163;SDS011;74288;46.872;7.802;2024-03-23T04:52:17;3.95;;;1.58;;
84163;SDS011;74288;46.872;7.802;2024-03-23T04:54:43;5.60;;;1.60;;
84163;SDS011;74288;46.872;7.802;2024-03-23T04:57:10;4.33;;;1.50;;
84163;SDS011;74288;46.872;7.802;2024-03-23T04:59:36;4.15;;;1.60;;
84163;SDS011;74288;46.872;7.802;2024-03-23T05:02:02;4.55;;;1.80;;
84163;SDS011;74288;46.872;7.802;2024-03-23T05:04:28;3.85;;;1.55;;
84163;SDS011;74288;46.872;7.802;2024-03-23T05:06:54;5.50;;;2.10;;
84163;SDS011;74288;46.872;7.802;2024-03-23T05:09:20;5.10;;;1.77;;
84163;SDS011;74288;46.872;7.802;2024-03-23T05:11:46;5.47;;;1.55;;
84163;SDS011;74288;46.872;7.802;2024-03-23T05:14:13;5.47;;;1.70;;
84163;SDS011;74288;46.872;7.802;2024-03-23T05:16:39;3.92;;;1.60;;
84163;SDS011;74288;46.872;7.802;2024-03-23T05:19:06;3.53;;;1.50;;
84163;SDS011;74288;46.872;7.802;2024-03-23T05:21:31;3.47;;;1.50;;
84163;SDS011;74288;46.872;7.802;2024-03-23T05:23:57;5.60;;;2.15;;
84163;SDS011;74288;46.872;7.802;2024-03-23T05:26:23;7.03;;;2.10;;
84163;SDS011;74288;46.872;7.802;2024-03-23T05:28:49;5.87;;;2.40;;
84163;SDS011;74288;46.872;7.802;2024-03-23T05:31:25;5.85;;;1.80;;
84163;SDS011;74288;46.872;7.802;2024-03-23T05:33:51;4.00;;;1.67;;
84163;SDS011;74288;46.872;7.802;2024-03-23T05:36:17;6.05;;;2.47;;
84163;SDS011;74288;46.872;7.802;2024-03-23T05:38:43;5.07;;;2.10;;
84163;SDS011;74288;46.872;7.802;2024-03-23T05:41:09;5.15;;;1.92;;
84163;SDS011;74288;46.872;7.802;2024-03-23T05:43:35;5.43;;;1.48;;
84163;SDS011;74288;46.872;7.802;2024-03-23T05:46:01;4.82;;;2.08;;
84163;SDS011;74288;46.872;7.802;2024-03-23T05:48:27;6.63;;;2.70;;
84163;SDS011;74288;46.872;7.802;2024-03-23T05:50:55;6.93;;;3.13;;
84163;SDS011;74288;46.872;7.802;2024-03-23T05:53:21;7.38;;;3.15;;
84163;SDS011;74288;46.872;7.802;2024-03-23T05:55:47;8.00;;;3.15;;
84163;SDS011;74288;46.872;7.802;2024-03-23T05:58:14;8.50;;;3.40;;
84163;SDS011;74288;46.872;7.802;2024-03-23T06:00:41;7.30;;;3.10;;
84163;SDS011;74288;46.872;7.802;2024-03-23T06:03:07;10.20;;;3.45;;
84163;SDS011;74288;46.872;7.802;2024-03-23T06:05:33;6.72;;;3.00;;
84163;SDS011;74288;46.872;7.802;2024-03-23T06:07:59;9.05;;;3.83;;
84163;SDS011;74288;46.872;7.802;2024-03-23T06:10:25;9.18;;;3.72;;
84163;SDS011;74288;46.872;7.802;2024-03-23T06:12:51;8.73;;;3.38;;
84163;SDS011;74288;46.872;7.802;2024-03-23T06:15:20;9.60;;;3.70;;
84163;SDS011;74288;46.872;7.802;2024-03-23T06:17:47;7.63;;;3.78;;
84163;SDS011;74288;46.872;7.802;2024-03-23T06:20:13;7.80;;;3.72;;
84163;SDS011;74288;46.872;7.802;2024-03-23T06:22:39;7.43;;;3.40;;
84163;SDS011;74288;46.872;7.802;2024-03-23T06:25:05;6.32;;;2.70;;
84163;SDS011;74288;46.872;7.802;2024-03-23T06:27:32;7.22;;;2.95;;
84163;SDS011;74288;46.872;7.802;2024-03-23T06:30:01;7.13;;;3.50;;
84163;SDS011;74288;46.872;7.802;2024-03-23T06:32:27;8.63;;;2.90;;
84163;SDS011;74288;46.872;7.802;2024-03-23T06:34:56;6.78;;;2.67;;
84163;SDS011;74288;46.872;7.802;2024-03-23T06:37:22;5.95;;;2.50;;
84163;SDS011;74288;46.872;7.802;2024-03-23T06:39:48;5.63;;;2.13;;
84163;SDS011;74288;46.872;7.802;2024-03-23T06:42:14;5.93;;;2.40;;
84163;SDS011;74288;46.872;7.802;2024-03-23T06:44:40;6.40;;;2.70;;
84163;SDS011;74288;46.872;7.802;2024-03-23T06:47:06;8.07;;;2.90;;
84163;SDS011;74288;46.872;7.802;2024-03-23T06:49:32;7.00;;;2.72;;
84163;SDS011;74288;46.872;7.802;2024-03-23T06:51:58;7.63;;;3.30;;
84163;SDS011;74288;46.872;7.802;2024-03-23T06:54:24;6.90;;;2.35;;
84163;SDS011;74288;46.872;7.802;2024-03-23T06:56:50;5.68;;;2.15;;
84163;SDS011;74288;46.872;7.802;2024-03-23T06:59:16;5.30;;;2.08;;
84163;SDS011;74288;46.872;7.802;2024-03-23T07:01:42;5.80;;;2.50;;
84163;SDS011;74288;46.872;7.802;2024-03-23T07:04:08;5.47;;;2.60;;
84163;SDS011;74288;46.872;7.802;2024-03-23T07:06:34;5.80;;;2.20;;
84163;SDS011;74288;46.872;7.802;2024-03-23T07:09:07;5.40;;;2.22;;
84163;SDS011;74288;46.872;7.802;2024-03-23T07:11:33;4.88;;;2.10;;
84163;SDS011;74288;46.872;7.802;2024-03-23T07:13:59;5.70;;;2.10;;
84163;SDS011;74288;46.872;7.802;2024-03-23T07:16:26;4.88;;;2.13;;
84163;SDS011;74288;46.872;7.802;2024-03-23T07:18:52;5.45;;;2.10;;
84163;SDS011;74288;46.872;7.802;2024-03-23T07:21:18;4.88;;;2.13;;
84163;SDS011;74288;46.872;7.802;2024-03-23T07:23:44;4.85;;;2.10;;
84163;SDS011;74288;46.872;7.802;2024-03-23T07:26:10;5.72;;;2.35;;
84163;SDS011;74288;46.872;7.802;2024-03-23T07:28:37;5.72;;;2.40;;
84163;SDS011;74288;46.872;7.802;2024-03-23T07:33:33;5.37;;;2.20;;
84163;SDS011;74288;46.872;7.802;2024-03-23T07:35:59;4.90;;;1.92;;
84163;SDS011;74288;46.872;7.802;2024-03-23T07:38:28;6.22;;;2.40;;
84163;SDS011;74288;46.872;7.802;2024-03-23T07:41:07;4.47;;;2.03;;
84163;SDS011;74288;46.872;7.802;2024-03-23T07:43:34;4.90;;;1.88;;
84163;SDS011;74288;46.872;7.802;2024-03-23T07:46:00;5.30;;;2.03;;
84163;SDS011;74288;46.872;7.802;2024-03-23T07:48:26;5.22;;;1.92;;
84163;SDS011;74288;46.872;7.802;2024-03-23T07:50:56;4.88;;;2.10;;
84163;SDS011;74288;46.872;7.802;2024-03-23T07:53:22;4.57;;;2.00;;
84163;SDS011;74288;46.872;7.802;2024-03-23T07:55:54;5.32;;;1.90;;
84163;SDS011;74288;46.872;7.802;2024-03-23T07:58:20;6.00;;;2.50;;
84163;SDS011;74288;46.872;7.802;2024-03-23T08:00:46;4.10;;;1.92;;
84163;SDS011;74288;46.872;7.802;2024-03-23T08:03:12;5.55;;;1.98;;
84163;SDS011;74288;46.872;7.802;2024-03-23T08:05:38;4.97;;;1.80;;
84163;SDS011;74288;46.872;7.802;2024-03-23T08:08:04;4.50;;;1.83;;
84163;SDS011;74288;46.872;7.802;2024-03-23T08:10:30;5.40;;;1.77;;
84163;SDS011;74288;46.872;7.802;2024-03-23T08:12:56;4.32;;;1.65;;
84163;SDS011;74288;46.872;7.802;2024-03-23T08:15:22;4.00;;;1.75;;
84163;SDS011;74288;46.872;7.802;2024-03-23T08:17:49;4.20;;;1.60;;
84163;SDS011;74288;46.872;7.802;2024-03-23T08:20:15;4.63;;;1.70;;
84163;SDS011;74288;46.872;7.802;2024-03-23T08:22:41;4.28;;;1.73;;
84163;SDS011;74288;46.872;7.802;2024-03-23T08:25:07;3.90;;;1.50;;
84163;SDS011;74288;46.872;7.802;2024-03-23T08:27:33;3.97;;;1.10;;
84163;SDS011;74288;46.872;7.802;2024-03-23T08:29:59;4.10;;;0.90;;
84163;SDS011;74288;46.872;7.802;2024-03-23T08:32:25;1.55;;;0.60;;
84163;SDS011;74288;46.872;7.802;2024-03-23T08:34:51;2.13;;;0.60;;
84163;SDS011;74288;46.872;7.802;2024-03-23T08:37:16;1.48;;;0.50;;
84163;SDS011;74288;46.872;7.802;2024-03-23T08:39:43;2.53;;;0.80;;
84163;SDS011;74288;46.872;7.802;2024-03-23T08:42:09;1.48;;;0.50;;
84163;SDS011;74288;46.872;7.802;2024-03-23T08:44:35;0.80;;;0.40;;
84163;SDS011;74288;46.872;7.802;2024-03-23T08:47:01;1.05;;;0.30;;
84163;SDS011;74288;46.872;7.802;2024-03-23T08:49:27;1.20;;;0.60;;
84163;SDS011;74288;46.872;7.802;2024-03-23T08:51:53;1.58;;;0.30;;
84163;SDS011;74288;46.872;7.802;2024-03-23T08:54:19;1.57;;;0.40;;
84163;SDS011;74288;46.872;7.802;2024-03-23T08:56:47;1.17;;;0.40;;
84163;SDS011;74288;46.872;7.802;2024-03-23T08:59:13;0.80;;;0.30;;
84163;SDS011;74288;46.872;7.802;2024-03-23T09:01:39;1.58;;;0.40;;
84163;SDS011;74288;46.872;7.802;2024-03-23T09:04:05;2.27;;;0.50;;
84163;SDS011;74288;46.872;7.802;2024-03-23T09:06:31;2.80;;;0.40;;
84163;SDS011;74288;46.872;7.802;2024-03-23T09:08:57;0.80;;;0.30;;
84163;SDS011;74288;46.872;7.802;2024-03-23T09:11:22;1.80;;;0.60;;
84163;SDS011;74288;46.872;7.802;2024-03-23T09:13:48;0.93;;;0.40;;
84163;SDS011;74288;46.872;7.802;2024-03-23T09:16:14;1.23;;;0.40;;
84163;SDS011;74288;46.872;7.802;2024-03-23T09:18:40;0.75;;;0.32;;
84163;SDS011;74288;46.872;7.802;2024-03-23T09:21:13;2.78;;;0.70;;
84163;SDS011;74288;46.872;7.802;2024-03-23T09:23:39;1.20;;;0.50;;
84163;SDS011;74288;46.872;7.802;2024-03-23T09:26:05;2.80;;;1.10;;
84163;SDS011;74288;46.872;7.802;2024-03-23T09:28:32;17.40;;;7.45;;
84163;SDS011;74288;46.872;7.802;2024-03-23T09:31:05;7.83;;;3.10;;
84163;SDS011;74288;46.872;7.802;2024-03-23T09:33:31;4.30;;;1.50;;
84163;SDS011;74288;46.872;7.802;2024-03-23T09:35:57;2.15;;;0.85;;
84163;SDS011;74288;46.872;7.802;2024-03-23T09:38:23;4.00;;;0.95;;
84163;SDS011;74288;46.872;7.802;2024-03-23T09:40:52;1.77;;;0.68;;
84163;SDS011;74288;46.872;7.802;2024-03-23T09:43:19;1.30;;;0.50;;
84163;SDS011;74288;46.872;7.802;2024-03-23T09:45:45;1.55;;;0.52;;
84163;SDS011;74288;46.872;7.802;2024-03-23T09:48:11;0.90;;;0.40;;
84163;SDS011;74288;46.872;7.802;2024-03-23T09:50:41;2.60;;;1.05;;
84163;SDS011;74288;46.872;7.802;2024-03-23T09:53:07;0.85;;;0.35;;
84163;SDS011;74288;46.872;7.802;2024-03-23T09:55:34;2.83;;;0.70;;
84163;SDS011;74288;46.872;7.802;2024-03-23T09:58:03;1.65;;;0.55;;
84163;SDS011;74288;46.872;7.802;2024-03-23T10:00:33;3.40;;;0.47;;
84163;SDS011;74288;46.872;7.802;2024-03-23T10:02:59;1.67;;;0.60;;
84163;SDS011;74288;46.872;7.802;2024-03-23T10:05:28;2.45;;;0.80;;
84163;SDS011;74288;46.872;7.802;2024-03-23T10:07:56;1.90;;;0.70;;
84163;SDS011;74288;46.872;7.802;2024-03-23T10:10:22;1.25;;;0.60;;
84163;SDS011;74288;46.872;7.802;2024-03-23T10:12:50;2.00;;;0.70;;
84163;SDS011;74288;46.872;7.802;2024-03-23T10:15:20;6.07;;;2.35;;
84163;SDS011;74288;46.872;7.802;2024-03-23T10:17:46;2.72;;;1.00;;
84163;SDS011;74288;46.872;7.802;2024-03-23T10:20:13;4.60;;;1.30;;
84163;SDS011;74288;46.872;7.802;2024-03-23T10:22:39;3.42;;;0.80;;
84163;SDS011;74288;46.872;7.802;2024-03-23T10:25:09;3.05;;;0.90;;
84163;SDS011;74288;46.872;7.802;2024-03-23T10:27:35;2.70;;;0.70;;
84163;SDS011;74288;46.872;7.802;2024-03-23T10:30:13;1.70;;;0.57;;
84163;SDS011;74288;46.872;7.802;2024-03-23T10:32:40;2.00;;;0.60;;
84163;SDS011;74288;46.872;7.802;2024-03-23T10:35:19;2.25;;;0.70;;
84163;SDS011;74288;46.872;7.802;2024-03-23T10:37:48;3.03;;;0.80;;
84163;SDS011;74288;46.872;7.802;2024-03-23T10:40:15;2.30;;;0.80;;
84163;SDS011;74288;46.872;7.802;2024-03-23T10:42:41;2.90;;;0.90;;
84163;SDS011;74288;46.872;7.802;2024-03-23T10:45:07;2.07;;;0.70;;
84163;SDS011;74288;46.872;7.802;2024-03-23T10:47:34;2.78;;;0.70;;
84163;SDS011;74288;46.872;7.802;2024-03-23T10:50:01;3.03;;;0.73;;
84163;SDS011;74288;46.872;7.802;2024-03-23T10:52:27;3.17;;;0.82;;
84163;SDS011;74288;46.872;7.802;2024-03-23T10:54:53;2.95;;;0.98;;
84163;SDS011;74288;46.872;7.802;2024-03-23T10:57:23;2.33;;;0.70;;
84163;SDS011;74288;46.872;7.802;2024-03-23T10:59:52;4.22;;;0.70;;
84163;SDS011;74288;46.872;7.802;2024-03-23T11:02:18;6.30;;;1.00;;
84163;SDS011;74288;46.872;7.802;2024-03-23T11:04:45;2.80;;;1.00;;
84163;SDS011;74288;46.872;7.802;2024-03-23T11:09:52;8.63;;;0.93;;
84163;SDS011;74288;46.872;7.802;2024-03-23T11:15:00;2.85;;;0.77;;
84163;SDS011;74288;46.872;7.802;2024-03-23T11:17:27;3.97;;;0.88;;
84163;SDS011;74288;46.872;7.802;2024-03-23T11:25:16;8.13;;;1.10;;
84163;SDS011;74288;46.872;7.802;2024-03-23T11:27:43;5.07;;;1.00;;
84163;SDS011;74288;46.872;7.802;2024-03-23T11:30:16;2.97;;;1.10;;
84163;SDS011;74288;46.872;7.802;2024-03-23T11:32:46;5.03;;;1.20;;
84163;SDS011;74288;46.872;7.802;2024-03-23T11:38:16;5.88;;;1.10;;
84163;SDS011;74288;46.872;7.802;2024-03-23T11:40:46;4.40;;;0.90;;
84163;SDS011;74288;46.872;7.802;2024-03-23T11:43:15;4.50;;;1.00;;
84163;SDS011;74288;46.872;7.802;2024-03-23T11:45:48;3.97;;;0.93;;
84163;SDS011;74288;46.872;7.802;2024-03-23T11:48:18;3.75;;;1.00;;
84163;SDS011;74288;46.872;7.802;2024-03-23T11:50:45;5.75;;;0.90;;
84163;SDS011;74288;46.872;7.802;2024-03-23T11:58:09;4.13;;;0.90;;
84163;SDS011;74288;46.872;7.802;2024-03-23T12:00:36;5.00;;;1.00;;
84163;SDS011;74288;46.872;7.802;2024-03-23T12:03:02;3.75;;;0.90;;
84163;SDS011;74288;46.872;7.802;2024-03-23T12:05:28;2.30;;;0.70;;
84163;SDS011;74288;46.872;7.802;2024-03-23T12:07:55;3.78;;;0.90;;
84163;SDS011;74288;46.872;7.802;2024-03-23T12:10:21;4.00;;;0.80;;
84163;SDS011;74288;46.872;7.802;2024-03-23T12:12:59;3.33;;;0.80;;
84163;SDS011;74288;46.872;7.802;2024-03-23T12:15:25;3.22;;;0.80;;
84163;SDS011;74288;46.872;7.802;2024-03-23T12:17:51;4.65;;;0.90;;
84163;SDS011;74288;46.872;7.802;2024-03-23T12:20:17;5.70;;;0.90;;
84163;SDS011;74288;46.872;7.802;2024-03-23T12:22:43;2.80;;;0.80;;
84163;SDS011;74288;46.872;7.802;2024-03-23T12:25:10;3.50;;;0.90;;
84163;SDS011;74288;46.872;7.802;2024-03-23T12:27:36;4.60;;;0.90;;
84163;SDS011;74288;46.872;7.802;2024-03-23T12:30:02;3.37;;;0.80;;
84163;SDS011;74288;46.872;7.802;2024-03-23T12:32:29;5.15;;;1.02;;
84163;SDS011;74288;46.872;7.802;2024-03-23T12:34:55;4.35;;;1.00;;
84163;SDS011;74288;46.872;7.802;2024-03-23T12:37:21;3.03;;;0.90;;
84163;SDS011;74288;46.872;7.802;2024-03-23T12:39:47;5.80;;;0.93;;
84163;SDS011;74288;46.872;7.802;2024-03-23T12:42:13;4.70;;;0.85;;
84163;SDS011;74288;46.872;7.802;2024-03-23T12:44:39;4.90;;;0.90;;
84163;SDS011;74288;46.872;7.802;2024-03-23T12:47:06;3.50;;;0.80;;
84163;SDS011;74288;46.872;7.802;2024-03-23T12:49:32;3.72;;;0.90;;
84163;SDS011;74288;46.872;7.802;2024-03-23T12:51:58;3.45;;;0.90;;
84163;SDS011;74288;46.872;7.802;2024-03-23T12:54:24;3.97;;;0.90;;
84163;SDS011;74288;46.872;7.802;2024-03-23T12:56:50;4.23;;;0.90;;
84163;SDS011;74288;46.872;7.802;2024-03-23T12:59:17;4.65;;;0.93;;
84163;SDS011;74288;46.872;7.802;2024-03-23T13:01:43;5.90;;;1.20;;
84163;SDS011;74288;46.872;7.802;2024-03-23T13:04:09;3.38;;;0.90;;
84163;SDS011;74288;46.872;7.802;2024-03-23T13:06:35;3.83;;;0.80;;
84163;SDS011;74288;46.872;7.802;2024-03-23T13:09:01;3.17;;;0.80;;
84163;SDS011;74288;46.872;7.802;2024-03-23T13:11:31;6.45;;;0.80;;
84163;SDS011;74288;46.872;7.802;2024-03-23T13:13:57;4.85;;;0.80;;
84163;SDS011;74288;46.872;7.802;2024-03-23T13:16:23;4.47;;;0.70;;
84163;SDS011;74288;46.872;7.802;2024-03-23T13:18:49;4.37;;;0.80;;
84163;SDS011;74288;46.872;7.802;2024-03-23T13:21:15;5.20;;;0.90;;
84163;SDS011;74288;46.872;7.802;2024-03-23T13:23:41;6.38;;;0.93;;
84163;SDS011;74288;46.872;7.802;2024-03-23T13:26:10;5.63;;;1.75;;
84163;SDS011;74288;46.872;7.802;2024-03-23T13:28:36;5.43;;;1.23;;
84163;SDS011;74288;46.872;7.802;2024-03-23T13:31:02;7.53;;;2.00;;
84163;SDS011;74288;46.872;7.802;2024-03-23T13:33:29;8.15;;;2.30;;
84163;SDS011;74288;46.872;7.802;2024-03-23T13:35:57;7.90;;;2.05;;
84163;SDS011;74288;46.872;7.802;2024-03-23T13:38:23;12.55;;;3.05;;
84163;SDS011;74288;46.872;7.802;2024-03-23T13:40:55;10.80;;;2.63;;
84163;SDS011;74288;46.872;7.802;2024-03-23T13:43:21;8.75;;;1.70;;
84163;SDS011;74288;46.872;7.802;2024-03-23T13:45:48;11.80;;;2.85;;
84163;SDS011;74288;46.872;7.802;2024-03-23T13:48:15;6.72;;;1.50;;
84163;SDS011;74288;46.872;7.802;2024-03-23T13:50:41;5.72;;;1.25;;
84163;SDS011;74288;46.872;7.802;2024-03-23T13:53:07;5.93;;;1.37;;
84163;SDS011;74288;46.872;7.802;2024-03-23T13:55:33;8.65;;;1.70;;
84163;SDS011;74288;46.872;7.802;2024-03-23T13:58:00;11.18;;;2.80;;
84163;SDS011;74288;46.872;7.802;2024-03-23T14:00:26;8.95;;;2.00;;
84163;SDS011;74288;46.872;7.802;2024-03-23T14:02:52;9.33;;;2.00;;
84163;SDS011;74288;46.872;7.802;2024-03-23T14:05:18;4.78;;;1.33;;
84163;SDS011;74288;46.872;7.802;2024-03-23T14:07:44;5.78;;;1.38;;
84163;SDS011;74288;46.872;7.802;2024-03-23T14:10:10;6.43;;;1.42;;
84163;SDS011;74288;46.872;7.802;2024-03-23T14:12:36;9.18;;;2.15;;
84163;SDS011;74288;46.872;7.802;2024-03-23T14:15:06;7.60;;;2.00;;
84163;SDS011;74288;46.872;7.802;2024-03-23T14:17:33;5.60;;;1.38;;
84163;SDS011;74288;46.872;7.802;2024-03-23T14:19:59;3.28;;;0.80;;
84163;SDS011;74288;46.872;7.802;2024-03-23T14:22:26;7.03;;;1.03;;
84163;SDS011;74288;46.872;7.802;2024-03-23T14:24:52;9.55;;;2.80;;
84163;SDS011;74288;46.872;7.802;2024-03-23T14:27:18;5.32;;;1.48;;
84163;SDS011;74288;46.872;7.802;2024-03-23T14:29:47;10.80;;;2.58;;
84163;SDS011;74288;46.872;7.802;2024-03-23T14:32:13;9.52;;;2.00;;
84163;SDS011;74288;46.872;7.802;2024-03-23T14:34:40;9.10;;;2.60;;
84163;SDS011;74288;46.872;7.802;2024-03-23T14:37:06;4.90;;;1.20;;
84163;SDS011;74288;46.872;7.802;2024-03-23T14:39:32;6.30;;;1.20;;
84163;SDS011;74288;46.872;7.802;2024-03-23T14:42:04;13.43;;;2.88;;
84163;SDS011;74288;46.872;7.802;2024-03-23T14:44:31;13.23;;;3.07;;
84163;SDS011;74288;46.872;7.802;2024-03-23T14:46:57;6.22;;;1.70;;
84163;SDS011;74288;46.872;7.802;2024-03-23T14:49:23;5.20;;;1.27;;
84163;SDS011;74288;46.872;7.802;2024-03-23T14:51:49;6.18;;;1.50;;
84163;SDS011;74288;46.872;7.802;2024-03-23T14:54:15;5.40;;;1.53;;
84163;SDS011;74288;46.872;7.802;2024-03-23T14:56:41;5.57;;;1.20;;
84163;SDS011;74288;46.872;7.802;2024-03-23T14:59:07;12.57;;;3.13;;
84163;SDS011;74288;46.872;7.802;2024-03-23T15:01:33;8.88;;;2.05;;
84163;SDS011;74288;46.872;7.802;2024-03-23T15:04:00;4.88;;;1.20;;
84163;SDS011;74288;46.872;7.802;2024-03-23T15:06:26;4.83;;;0.97;;
84163;SDS011;74288;46.872;7.802;2024-03-23T15:08:52;4.97;;;1.40;;
84163;SDS011;74288;46.872;7.802;2024-03-23T15:11:19;6.65;;;1.65;;
84163;SDS011;74288;46.872;7.802;2024-03-23T15:13:45;7.15;;;1.30;;
84163;SDS011;74288;46.872;7.802;2024-03-23T15:16:16;5.55;;;1.55;;
84163;SDS011;74288;46.872;7.802;2024-03-23T15:18:43;13.07;;;2.60;;
84163;SDS011;74288;46.872;7.802;2024-03-23T15:21:09;10.85;;;2.30;;
84163;SDS011;74288;46.872;7.802;2024-03-23T15:23:36;4.85;;;0.95;;
84163;SDS011;74288;46.872;7.802;2024-03-23T15:26:02;6.25;;;1.50;;
84163;SDS011;74288;46.872;7.802;2024-03-23T15:28:29;4.50;;;1.03;;
84163;SDS011;74288;46.872;7.802;2024-03-23T15:31:13;6.75;;;1.30;;
84163;SDS011;74288;46.872;7.802;2024-03-23T15:33:39;4.00;;;0.90;;
84163;SDS011;74288;46.872;7.802;2024-03-23T15:36:06;10.18;;;2.20;;
84163;SDS011;74288;46.872;7.802;2024-03-23T15:38:32;9.35;;;2.30;;
84163;SDS011;74288;46.872;7.802;2024-03-23T15:40:58;6.00;;;1.33;;
84163;SDS011;74288;46.872;7.802;2024-03-23T15:43:24;7.53;;;1.63;;
84163;SDS011;74288;46.872;7.802;2024-03-23T15:45:54;6.53;;;1.30;;
84163;SDS011;74288;46.872;7.802;2024-03-23T15:48:20;6.65;;;1.50;;
84163;SDS011;74288;46.872;7.802;2024-03-23T15:50:52;4.70;;;1.10;;
84163;SDS011;74288;46.872;7.802;2024-03-23T15:53:19;5.33;;;1.30;;
84163;SDS011;74288;46.872;7.802;2024-03-23T15:55:45;9.23;;;1.50;;
84163;SDS011;74288;46.872;7.802;2024-03-23T15:58:11;4.65;;;1.05;;
84163;SDS011;74288;46.872;7.802;2024-03-23T16:00:37;4.60;;;0.90;;